Russelville, Illinois
Current Conditions -  °F | °C
As of 5:53 PM on Saturday 22 Nov 2014 (Local Time) from KLWV Reporting Station
Overcast Overcast  
Wind Chill: 56°   Ceiling: 9000
Heat Index: 56°   Visibility: 10mi
Dew Point: 43°   Wind: 8mph
Humidity: 62%   Direction: 180°S
Pressure: 30.03"   Gusts: NA
Location:  38.7501°N, 87.6141°W
Report Text: KLWV 222353Z AUTO 18007KT 10SM FEW055 BKN090 OVC100 13/06 A3003 RMK AO2 SLP170 T01330061 10172 20128 55006
Loading
Personal Weather Stations






























Interactive Weather Map New forecast layout! Learn more

10-Day Weather Forecast

Advertisements
Track Severe Weather on mobile